Time;durP1;ratioP1;P1;durP2;ratioP2;P2;SDS_P1;SDS_P2;PMS_P1;PMS_P2;Temp;Humidity;BMP_temperature;BMP_pressure;BME280_temperature;BME280_humidity;BME280_pressure;Samples;Min_cycle;Max_cycle;Signal;HPM_P1;HPM_P2
2022/02/26 00:01:49;;;;;;;5.20;2.17;;;;;;;;;;5082429;28;20028;-70
2022/02/26 00:04:17;;;;;;;3.42;2.20;;;;;;;;;;5086522;28;20034;-71
2022/02/26 00:06:43;;;;;;;4.13;2.35;;;;;;;;;;5085934;28;20071;-72
2022/02/26 00:09:09;;;;;;;4.82;2.45;;;;;;;;;;5079458;28;20627;-72
2022/02/26 00:11:36;;;;;;;7.13;2.80;;;;;;;;;;5088943;28;20475;-71
2022/02/26 00:14:02;;;;;;;4.60;2.50;;;;;;;;;;5082776;28;20055;-80
2022/02/26 00:16:28;;;;;;;10.68;3.15;;;;;;;;;;5089236;28;20079;-76
2022/02/26 00:18:54;;;;;;;8.07;2.28;;;;;;;;;;5087434;28;20177;-81
2022/02/26 00:21:20;;;;;;;7.32;2.40;;;;;;;;;;5070081;28;20074;-79
2022/02/26 00:23:46;;;;;;;5.10;1.92;;;;;;;;;;5088170;28;20021;-77
2022/02/26 00:26:13;;;;;;;6.75;2.85;;;;;;;;;;5088394;28;20040;-80
2022/02/26 00:28:39;;;;;;;5.78;2.70;;;;;;;;;;5090003;28;20020;-85
2022/02/26 00:31:05;;;;;;;6.13;2.50;;;;;;;;;;5089480;28;20043;-71
2022/02/26 00:33:31;;;;;;;5.53;2.50;;;;;;;;;;5088326;28;20020;-70
2022/02/26 00:36:00;;;;;;;11.32;2.70;;;;;;;;;;5069603;28;20040;-82
2022/02/26 00:38:27;;;;;;;7.60;2.45;;;;;;;;;;5073966;28;20413;-76
2022/02/26 00:40:53;;;;;;;6.88;2.70;;;;;;;;;;5086029;28;20104;-71
2022/02/26 00:43:20;;;;;;;6.35;2.75;;;;;;;;;;5079804;28;20024;-74
2022/02/26 00:45:46;;;;;;;6.30;2.30;;;;;;;;;;5089520;28;20075;-80
2022/02/26 00:48:12;;;;;;;3.67;2.28;;;;;;;;;;5089743;28;20023;-71
2022/02/26 00:50:38;;;;;;;7.78;2.63;;;;;;;;;;5089492;28;20055;-78
2022/02/26 00:53:05;;;;;;;6.05;2.20;;;;;;;;;;5089525;28;20024;-75
2022/02/26 00:55:31;;;;;;;6.68;2.45;;;;;;;;;;5088922;28;20024;-72
2022/02/26 00:57:58;;;;;;;8.18;2.80;;;;;;;;;;5089414;28;20028;-70
2022/02/26 01:00:24;;;;;;;3.78;2.58;;;;;;;;;;5089154;28;20027;-73
2022/02/26 01:02:50;;;;;;;6.88;2.40;;;;;;;;;;5085743;28;20060;-71
2022/02/26 01:05:16;;;;;;;5.35;2.80;;;;;;;;;;5068916;28;20114;-83
2022/02/26 01:07:43;;;;;;;7.20;2.90;;;;;;;;;;5087015;28;20460;-74
2022/02/26 01:10:09;;;;;;;9.30;2.30;;;;;;;;;;5089120;28;20037;-70
2022/02/26 01:12:35;;;;;;;9.45;2.97;;;;;;;;;;5088838;28;20016;-71
2022/02/26 01:15:05;;;;;;;12.13;2.88;;;;;;;;;;5088192;28;20027;-80
2022/02/26 01:17:32;;;;;;;7.78;2.72;;;;;;;;;;5069856;28;20476;-70
2022/02/26 01:19:58;;;;;;;4.47;2.47;;;;;;;;;;5089081;28;20107;-83
2022/02/26 01:22:24;;;;;;;7.25;2.75;;;;;;;;;;5070791;28;20107;-86
2022/02/26 01:24:50;;;;;;;4.68;2.58;;;;;;;;;;5089237;28;20095;-81
2022/02/26 01:27:17;;;;;;;5.97;2.20;;;;;;;;;;5072338;28;20131;-82
2022/02/26 01:29:43;;;;;;;6.68;2.28;;;;;;;;;;5077940;28;20491;-76
2022/02/26 01:32:09;;;;;;;9.45;2.42;;;;;;;;;;5088757;28;20035;-73
2022/02/26 01:34:35;;;;;;;5.57;2.70;;;;;;;;;;5088736;28;20020;-81
2022/02/26 01:37:01;;;;;;;5.47;2.53;;;;;;;;;;5077202;28;20086;-75
2022/02/26 01:39:27;;;;;;;5.28;2.30;;;;;;;;;;5086642;28;20036;-80
2022/02/26 01:41:56;;;;;;;5.75;2.70;;;;;;;;;;5083688;28;20030;-80
2022/02/26 01:44:23;;;;;;;7.38;2.80;;;;;;;;;;5087614;28;20088;-82
2022/02/26 01:46:49;;;;;;;6.20;2.75;;;;;;;;;;5068524;28;20097;-71
2022/02/26 01:49:15;;;;;;;5.82;2.63;;;;;;;;;;5067173;28;20372;-74
2022/02/26 01:51:42;;;;;;;6.25;2.85;;;;;;;;;;5069440;28;20547;-85
2022/02/26 01:54:08;;;;;;;8.27;2.88;;;;;;;;;;5088411;28;20028;-82
2022/02/26 01:56:34;;;;;;;6.00;3.08;;;;;;;;;;5088301;28;20023;-71
2022/02/26 01:59:00;;;;;;;5.60;2.53;;;;;;;;;;5068068;28;20051;-76
2022/02/26 02:01:26;;;;;;;5.93;2.60;;;;;;;;;;5083641;28;20079;-80
2022/02/26 02:03:52;;;;;;;7.07;2.88;;;;;;;;;;5087985;28;20052;-79
2022/02/26 02:06:19;;;;;;;7.55;3.33;;;;;;;;;;5087904;28;20081;-82
2022/02/26 02:08:45;;;;;;;5.15;2.65;;;;;;;;;;5086335;28;20024;-75
2022/02/26 02:11:11;;;;;;;4.35;2.42;;;;;;;;;;5086416;28;20519;-70
2022/02/26 02:13:37;;;;;;;6.25;2.85;;;;;;;;;;5067865;28;20115;-72
2022/02/26 02:16:04;;;;;;;6.13;3.00;;;;;;;;;;5067920;28;20028;-73
2022/02/26 02:18:30;;;;;;;6.88;3.20;;;;;;;;;;5069953;28;20069;-83
2022/02/26 02:20:57;;;;;;;5.35;2.60;;;;;;;;;;5087762;28;20046;-81
2022/02/26 02:23:24;;;;;;;5.15;2.58;;;;;;;;;;5087488;28;20419;-71
2022/02/26 02:25:52;;;;;;;4.95;2.78;;;;;;;;;;5078371;28;20044;-85
2022/02/26 02:28:19;;;;;;;7.35;3.30;;;;;;;;;;5067662;28;20062;-82
2022/02/26 02:30:45;;;;;;;8.63;3.30;;;;;;;;;;5076029;28;20036;-85
2022/02/26 02:33:11;;;;;;;7.38;2.70;;;;;;;;;;5087282;28;20470;-82
2022/02/26 02:35:38;;;;;;;6.00;2.60;;;;;;;;;;5087438;28;20507;-70
2022/02/26 02:38:07;;;;;;;4.85;2.90;;;;;;;;;;5087389;28;20028;-77
2022/02/26 02:40:33;;;;;;;6.70;2.70;;;;;;;;;;5075977;28;20361;-75
2022/02/26 02:42:59;;;;;;;5.18;2.50;;;;;;;;;;5086914;28;20029;-84
2022/02/26 02:45:26;;;;;;;7.53;2.58;;;;;;;;;;5073463;28;20093;-86
2022/02/26 02:47:52;;;;;;;4.95;2.55;;;;;;;;;;5067336;28;20013;-86
2022/02/26 02:50:19;;;;;;;6.32;2.15;;;;;;;;;;5067258;28;20350;-71
2022/02/26 02:52:45;;;;;;;6.45;2.38;;;;;;;;;;5078128;28;20059;-71
2022/02/26 02:55:14;;;;;;;6.80;2.47;;;;;;;;;;5069437;28;20070;-73
2022/02/26 02:57:41;;;;;;;8.90;2.65;;;;;;;;;;5086873;28;20028;-78
2022/02/26 03:00:08;;;;;;;6.13;2.47;;;;;;;;;;5086950;28;20020;-81
2022/02/26 03:02:34;;;;;;;7.00;2.30;;;;;;;;;;5086657;28;20079;-81
2022/02/26 03:05:00;;;;;;;7.57;2.35;;;;;;;;;;5083686;28;20051;-73
2022/02/26 03:07:26;;;;;;;6.65;2.05;;;;;;;;;;5085724;28;20020;-84
2022/02/26 03:09:53;;;;;;;4.85;1.98;;;;;;;;;;5076771;28;20365;-83
2022/02/26 03:12:19;;;;;;;5.55;2.30;;;;;;;;;;5087107;28;20024;-71
2022/02/26 03:14:45;;;;;;;4.35;2.00;;;;;;;;;;5069372;28;20016;-70
2022/02/26 03:17:11;;;;;;;7.53;3.55;;;;;;;;;;5087263;28;20032;-70
2022/02/26 03:19:37;;;;;;;7.80;2.60;;;;;;;;;;5086924;28;20032;-75
2022/02/26 03:22:04;;;;;;;5.72;2.42;;;;;;;;;;5087149;28;20024;-70
2022/02/26 03:24:30;;;;;;;3.45;2.28;;;;;;;;;;5072403;28;20563;-78
2022/02/26 03:26:57;;;;;;;7.35;2.83;;;;;;;;;;5063426;28;20028;-80
2022/02/26 03:29:24;;;;;;;6.07;2.95;;;;;;;;;;5081136;28;20057;-70
2022/02/26 03:31:50;;;;;;;11.98;2.55;;;;;;;;;;5080914;28;20035;-69
2022/02/26 03:34:16;;;;;;;7.55;3.30;;;;;;;;;;5082183;28;20602;-70
2022/02/26 03:36:42;;;;;;;5.18;2.55;;;;;;;;;;5081001;28;20513;-74
2022/02/26 03:39:10;;;;;;;8.07;2.88;;;;;;;;;;5084136;28;20024;-70
2022/02/26 03:41:36;;;;;;;5.30;2.35;;;;;;;;;;5085049;28;20032;-76
2022/02/26 03:44:03;;;;;;;6.53;2.30;;;;;;;;;;5085674;28;20028;-74
2022/02/26 03:46:29;;;;;;;5.95;2.20;;;;;;;;;;5085720;28;20034;-72
2022/02/26 03:48:55;;;;;;;7.93;3.38;;;;;;;;;;5067253;28;20475;-70
2022/02/26 03:51:21;;;;;;;8.98;2.30;;;;;;;;;;5085225;28;20044;-79
2022/02/26 03:53:47;;;;;;;5.97;2.60;;;;;;;;;;5085781;28;20139;-70
2022/02/26 03:56:13;;;;;;;5.95;2.55;;;;;;;;;;5085519;28;20113;-72
2022/02/26 03:58:39;;;;;;;4.60;2.50;;;;;;;;;;5067283;28;20087;-70
2022/02/26 04:01:05;;;;;;;3.50;2.60;;;;;;;;;;5066771;28;20036;-71
2022/02/26 04:03:32;;;;;;;4.40;2.53;;;;;;;;;;5081768;28;20043;-69
2022/02/26 04:05:58;;;;;;;10.70;3.47;;;;;;;;;;5082930;28;20403;-70
2022/02/26 04:08:24;;;;;;;9.60;3.08;;;;;;;;;;5082248;28;20085;-71
2022/02/26 04:10:50;;;;;;;9.13;3.03;;;;;;;;;;5082748;28;20409;-70
2022/02/26 04:13:16;;;;;;;6.63;2.45;;;;;;;;;;5082509;28;20040;-69
2022/02/26 04:15:42;;;;;;;5.22;2.90;;;;;;;;;;5083173;28;20028;-70
2022/02/26 04:18:09;;;;;;;10.27;2.88;;;;;;;;;;5082280;28;20077;-69
2022/02/26 04:20:35;;;;;;;6.70;2.63;;;;;;;;;;5063961;28;20035;-70
2022/02/26 04:23:01;;;;;;;8.40;3.10;;;;;;;;;;5080288;28;20028;-69
2022/02/26 04:25:27;;;;;;;6.25;3.13;;;;;;;;;;5082667;28;20522;-69
2022/02/26 04:27:54;;;;;;;4.18;2.30;;;;;;;;;;5081636;28;20107;-70
2022/02/26 04:30:20;;;;;;;9.38;3.15;;;;;;;;;;5081032;28;20104;-70
2022/02/26 04:32:46;;;;;;;8.15;2.90;;;;;;;;;;5069046;28;20032;-69
2022/02/26 04:35:12;;;;;;;7.82;2.50;;;;;;;;;;5071823;28;20024;-69
2022/02/26 04:37:38;;;;;;;7.18;2.83;;;;;;;;;;5084300;28;20058;-69
2022/02/26 04:40:05;;;;;;;13.35;3.17;;;;;;;;;;5084225;28;20028;-69
2022/02/26 04:42:33;;;;;;;7.38;3.60;;;;;;;;;;5082332;28;20035;-70
2022/02/26 04:44:59;;;;;;;7.55;3.10;;;;;;;;;;5066241;28;20464;-70
2022/02/26 04:47:25;;;;;;;7.70;2.90;;;;;;;;;;5066560;28;20491;-69
2022/02/26 04:49:51;;;;;;;8.73;2.83;;;;;;;;;;5083889;28;20028;-69
2022/02/26 04:52:17;;;;;;;9.07;2.83;;;;;;;;;;5078844;28;20024;-69
2022/02/26 04:54:43;;;;;;;7.55;3.35;;;;;;;;;;5083838;28;20032;-69
2022/02/26 04:57:09;;;;;;;8.02;2.97;;;;;;;;;;5083711;28;20028;-69
2022/02/26 04:59:35;;;;;;;10.75;3.17;;;;;;;;;;5084226;28;20024;-70
2022/02/26 05:02:02;;;;;;;8.00;3.20;;;;;;;;;;5083896;28;20046;-69
2022/02/26 05:04:28;;;;;;;6.70;3.63;;;;;;;;;;5083355;28;20063;-69
2022/02/26 05:06:54;;;;;;;5.13;2.63;;;;;;;;;;5083544;28;20084;-69
2022/02/26 05:09:20;;;;;;;11.40;2.78;;;;;;;;;;5084000;28;20391;-69
2022/02/26 05:11:46;;;;;;;11.90;3.38;;;;;;;;;;5083388;28;20123;-69
2022/02/26 05:14:12;;;;;;;11.98;3.13;;;;;;;;;;5083784;28;20521;-69
2022/02/26 05:16:39;;;;;;;9.48;3.15;;;;;;;;;;5083709;28;20020;-69
2022/02/26 05:19:05;;;;;;;10.38;2.60;;;;;;;;;;5083482;28;20024;-69
2022/02/26 05:21:31;;;;;;;10.52;2.88;;;;;;;;;;5082989;28;20016;-69
2022/02/26 05:23:57;;;;;;;5.55;2.63;;;;;;;;;;5083080;28;20028;-69
2022/02/26 05:26:23;;;;;;;11.88;2.92;;;;;;;;;;5083466;28;20086;-70
2022/02/26 05:28:49;;;;;;;7.25;2.30;;;;;;;;;;5083177;28;20024;-69
2022/02/26 05:31:15;;;;;;;12.95;3.15;;;;;;;;;;5083504;28;20039;-71
2022/02/26 05:33:42;;;;;;;7.10;2.67;;;;;;;;;;5063422;28;20039;-70
2022/02/26 05:36:08;;;;;;;6.22;2.78;;;;;;;;;;5080547;28;20032;-69
2022/02/26 05:38:34;;;;;;;9.27;3.05;;;;;;;;;;5080976;28;20027;-70
2022/02/26 05:41:00;;;;;;;6.40;2.65;;;;;;;;;;5080941;28;20093;-70
2022/02/26 05:43:26;;;;;;;8.30;3.28;;;;;;;;;;5080486;28;20135;-69
2022/02/26 05:45:52;;;;;;;9.35;3.08;;;;;;;;;;5080443;28;20547;-70
2022/02/26 05:48:18;;;;;;;12.73;3.05;;;;;;;;;;5081283;28;20047;-69
2022/02/26 05:50:45;;;;;;;7.38;2.60;;;;;;;;;;5080717;28;20492;-70
2022/02/26 05:53:11;;;;;;;6.75;2.22;;;;;;;;;;5080610;28;20020;-69
2022/02/26 05:55:37;;;;;;;12.27;3.38;;;;;;;;;;5080234;28;20043;-70
2022/02/26 05:58:03;;;;;;;12.43;2.30;;;;;;;;;;5080478;28;20027;-69
2022/02/26 06:00:29;;;;;;;12.50;2.78;;;;;;;;;;5080142;28;20074;-69
2022/02/26 06:02:55;;;;;;;11.18;3.10;;;;;;;;;;5081157;28;20131;-70
2022/02/26 06:05:21;;;;;;;12.43;3.13;;;;;;;;;;5080730;28;20645;-70
2022/02/26 06:07:48;;;;;;;13.85;2.38;;;;;;;;;;5080851;28;20032;-69
2022/02/26 06:10:14;;;;;;;10.88;3.35;;;;;;;;;;5064729;28;20036;-69
2022/02/26 06:12:40;;;;;;;9.73;2.58;;;;;;;;;;5081918;28;20084;-70
2022/02/26 06:15:06;;;;;;;9.23;2.17;;;;;;;;;;5082605;28;20676;-72
2022/02/26 06:17:33;;;;;;;9.90;2.60;;;;;;;;;;5082345;28;20391;-76
2022/02/26 06:19:59;;;;;;;13.18;2.80;;;;;;;;;;5082231;28;20028;-70
2022/02/26 06:22:25;;;;;;;10.50;2.42;;;;;;;;;;5081375;28;20080;-73
2022/02/26 06:24:51;;;;;;;10.10;2.90;;;;;;;;;;5082618;28;20056;-71
2022/02/26 06:27:17;;;;;;;12.00;3.63;;;;;;;;;;5082025;28;20027;-71
2022/02/26 06:29:43;;;;;;;15.90;3.00;;;;;;;;;;5082318;28;20024;-79
2022/02/26 06:32:09;;;;;;;7.40;2.58;;;;;;;;;;5078210;28;20040;-70
2022/02/26 06:34:35;;;;;;;10.52;2.83;;;;;;;;;;5080259;28;20039;-70
2022/02/26 06:37:02;;;;;;;9.70;2.40;;;;;;;;;;5080173;28;20039;-71
2022/02/26 06:39:28;;;;;;;8.77;3.00;;;;;;;;;;5043673;28;20081;-74
2022/02/26 06:41:54;;;;;;;9.32;2.65;;;;;;;;;;5060448;28;20119;-70
2022/02/26 06:44:20;;;;;;;11.02;2.75;;;;;;;;;;5058929;28;20752;-78
2022/02/26 06:46:47;;;;;;;7.43;2.40;;;;;;;;;;5072335;28;20036;-74
2022/02/26 06:49:14;;;;;;;10.13;2.53;;;;;;;;;;5075908;28;20099;-72
2022/02/26 06:51:40;;;;;;;10.07;2.83;;;;;;;;;;5070135;28;20119;-78
2022/02/26 06:54:06;;;;;;;9.50;2.65;;;;;;;;;;5075402;28;20031;-74
2022/02/26 06:56:33;;;;;;;9.65;2.45;;;;;;;;;;5078006;28;20039;-71
2022/02/26 06:58:59;;;;;;;9.20;3.60;;;;;;;;;;5079487;28;20499;-70
2022/02/26 07:01:25;;;;;;;12.82;3.03;;;;;;;;;;5077063;28;20032;-72
2022/02/26 07:03:53;;;;;;;14.32;3.38;;;;;;;;;;5067442;28;20040;-75
2022/02/26 07:06:19;;;;;;;10.98;3.20;;;;;;;;;;5077590;28;20028;-70
2022/02/26 07:08:45;;;;;;;10.38;3.78;;;;;;;;;;5076533;28;20038;-70
2022/02/26 07:11:11;;;;;;;12.23;3.17;;;;;;;;;;5078393;28;20032;-71
2022/02/26 07:13:38;;;;;;;14.10;2.67;;;;;;;;;;5082101;28;20161;-73
2022/02/26 07:16:04;;;;;;;13.07;3.55;;;;;;;;;;5083717;28;20047;-75
2022/02/26 07:18:30;;;;;;;13.32;3.13;;;;;;;;;;5085125;28;20583;-79
2022/02/26 07:20:56;;;;;;;7.50;2.50;;;;;;;;;;5083738;28;20032;-75
2022/02/26 07:23:22;;;;;;;10.40;3.30;;;;;;;;;;5085671;28;20020;-79
2022/02/26 07:25:48;;;;;;;14.85;2.97;;;;;;;;;;5085744;28;20032;-75
2022/02/26 07:28:18;;;;;;;12.68;2.88;;;;;;;;;;5085521;28;20058;-74
2022/02/26 07:30:44;;;;;;;14.63;3.45;;;;;;;;;;5067100;28;20032;-75
2022/02/26 07:33:10;;;;;;;11.27;3.60;;;;;;;;;;5065229;28;20024;-72
2022/02/26 07:35:37;;;;;;;11.50;3.33;;;;;;;;;;5064504;28;20103;-78
2022/02/26 07:38:04;;;;;;;13.05;3.75;;;;;;;;;;5063947;28;20032;-76
2022/02/26 07:40:30;;;;;;;12.80;4.32;;;;;;;;;;5063701;28;20012;-78
2022/02/26 07:42:56;;;;;;;22.52;4.93;;;;;;;;;;5064213;28;20670;-74
2022/02/26 07:45:23;;;;;;;11.38;3.08;;;;;;;;;;5064118;28;20024;-75
2022/02/26 07:47:49;;;;;;;14.30;3.65;;;;;;;;;;5063543;28;20036;-72
2022/02/26 07:50:15;;;;;;;14.82;4.35;;;;;;;;;;5064075;28;20016;-76
2022/02/26 07:52:41;;;;;;;13.38;3.15;;;;;;;;;;5064794;28;20436;-76
2022/02/26 07:55:08;;;;;;;13.43;3.67;;;;;;;;;;5065054;28;20029;-72
2022/02/26 07:57:34;;;;;;;11.93;3.40;;;;;;;;;;5064112;28;20598;-72
2022/02/26 08:00:00;;;;;;;13.82;2.72;;;;;;;;;;5064839;28;20554;-78
2022/02/26 08:02:27;;;;;;;11.43;2.80;;;;;;;;;;5047069;28;20056;-78
2022/02/26 08:04:53;;;;;;;11.88;2.60;;;;;;;;;;5064642;28;20614;-71
2022/02/26 08:07:19;;;;;;;12.75;3.25;;;;;;;;;;5064326;28;20028;-75
2022/02/26 08:09:45;;;;;;;12.07;2.70;;;;;;;;;;5064629;28;20043;-78
2022/02/26 08:12:12;;;;;;;11.85;3.63;;;;;;;;;;5064889;28;20040;-78
2022/02/26 08:14:39;;;;;;;15.18;3.05;;;;;;;;;;5064938;28;20032;-75
2022/02/26 08:17:05;;;;;;;16.05;3.38;;;;;;;;;;5064341;28;20027;-71
2022/02/26 08:19:31;;;;;;;12.60;3.08;;;;;;;;;;5064292;28;20028;-79
2022/02/26 08:21:57;;;;;;;10.52;2.97;;;;;;;;;;5064380;28;20029;-73
2022/02/26 08:24:24;;;;;;;8.23;2.35;;;;;;;;;;5063756;28;20031;-71
2022/02/26 08:26:50;;;;;;;13.90;2.75;;;;;;;;;;5064529;28;20028;-70
2022/02/26 08:29:16;;;;;;;15.35;3.13;;;;;;;;;;5064713;28;20066;-73
2022/02/26 08:31:43;;;;;;;13.77;2.42;;;;;;;;;;5064317;28;20608;-78
2022/02/26 08:34:09;;;;;;;9.75;2.45;;;;;;;;;;5064120;28;20595;-75
2022/02/26 08:36:35;;;;;;;11.75;2.67;;;;;;;;;;5064336;28;20036;-75
2022/02/26 08:39:02;;;;;;;17.30;3.15;;;;;;;;;;5063980;28;20021;-70
2022/02/26 08:41:28;;;;;;;12.68;3.00;;;;;;;;;;5064122;28;20033;-74
2022/02/26 08:43:54;;;;;;;10.90;2.70;;;;;;;;;;5064223;28;20025;-73
2022/02/26 08:46:20;;;;;;;7.68;2.13;;;;;;;;;;5063981;28;20131;-76
2022/02/26 08:48:47;;;;;;;8.10;2.30;;;;;;;;;;5064018;28;20024;-78
2022/02/26 08:51:13;;;;;;;10.40;2.63;;;;;;;;;;5063903;28;20713;-72
2022/02/26 08:53:39;;;;;;;10.07;2.30;;;;;;;;;;5064308;28;20043;-70
2022/02/26 08:56:05;;;;;;;11.35;2.42;;;;;;;;;;5063555;28;20016;-77
2022/02/26 08:58:31;;;;;;;12.05;3.20;;;;;;;;;;5063847;28;20063;-73
2022/02/26 09:00:57;;;;;;;10.95;3.88;;;;;;;;;;5063877;28;20114;-75
2022/02/26 09:03:24;;;;;;;16.58;3.15;;;;;;;;;;5063767;28;20047;-78
2022/02/26 09:05:51;;;;;;;7.82;3.13;;;;;;;;;;5063598;28;20454;-75
2022/02/26 09:08:17;;;;;;;14.25;3.05;;;;;;;;;;5063625;28;20032;-79
2022/02/26 09:10:43;;;;;;;9.75;3.15;;;;;;;;;;5063727;28;20033;-72
2022/02/26 09:13:09;;;;;;;10.77;2.83;;;;;;;;;;5063703;28;20165;-74
2022/02/26 09:15:35;;;;;;;15.55;3.72;;;;;;;;;;5073792;28;20042;-79
2022/02/26 09:18:01;;;;;;;14.23;4.15;;;;;;;;;;5081509;28;20024;-76
2022/02/26 09:20:28;;;;;;;19.63;3.40;;;;;;;;;;5083630;28;20024;-79
2022/02/26 09:22:54;;;;;;;15.73;3.35;;;;;;;;;;5065843;28;20114;-79
2022/02/26 09:25:20;;;;;;;21.55;3.35;;;;;;;;;;5083847;28;20334;-76
2022/02/26 09:27:47;;;;;;;18.40;3.58;;;;;;;;;;5083296;28;20143;-78
2022/02/26 09:30:14;;;;;;;16.63;4.38;;;;;;;;;;5083182;28;20107;-80
2022/02/26 09:32:40;;;;;;;15.73;4.82;;;;;;;;;;5083596;28;20032;-74
2022/02/26 09:35:07;;;;;;;14.65;3.40;;;;;;;;;;5083060;28;20020;-79
2022/02/26 09:37:33;;;;;;;16.25;4.38;;;;;;;;;;5082971;28;20388;-77
2022/02/26 09:39:59;;;;;;;15.02;3.40;;;;;;;;;;5082941;28;20569;-78
2022/02/26 09:42:30;;;;;;;15.57;3.80;;;;;;;;;;5083066;28;20093;-78
2022/02/26 09:44:57;;;;;;;15.02;3.58;;;;;;;;;;5083079;28;20550;-79
2022/02/26 09:47:24;;;;;;;13.98;2.92;;;;;;;;;;5083077;28;20536;-78
2022/02/26 09:49:50;;;;;;;15.82;4.15;;;;;;;;;;5065384;28;20027;-79
2022/02/26 09:52:17;;;;;;;16.20;3.38;;;;;;;;;;5082746;28;20042;-80
2022/02/26 09:54:47;;;;;;;17.15;3.83;;;;;;;;;;5082934;28;20031;-79
2022/02/26 09:57:15;;;;;;;15.27;3.28;;;;;;;;;;5082945;28;20906;-79
2022/02/26 09:59:43;;;;;;;26.13;4.20;;;;;;;;;;5083018;28;20020;-78
2022/02/26 10:02:09;;;;;;;15.68;4.22;;;;;;;;;;5083242;28;20024;-75
2022/02/26 10:04:36;;;;;;;13.30;3.80;;;;;;;;;;5083308;28;20036;-78
2022/02/26 10:07:13;;;;;;;14.98;4.18;;;;;;;;;;5082840;28;20211;-76
2022/02/26 10:09:45;;;;;;;14.52;3.15;;;;;;;;;;5082478;28;20031;-78
2022/02/26 10:12:32;;;;;;;13.65;3.67;;;;;;;;;;5082730;28;20781;-78
2022/02/26 10:14:59;;;;;;;17.70;3.13;;;;;;;;;;5082909;28;20020;-78
2022/02/26 10:17:25;;;;;;;19.05;3.28;;;;;;;;;;5082614;28;20028;-79
2022/02/26 10:20:00;;;;;;;14.15;2.97;;;;;;;;;;5082291;28;20036;-79
2022/02/26 10:22:30;;;;;;;14.05;3.63;;;;;;;;;;5082593;28;20024;-75
2022/02/26 10:25:03;;;;;;;15.70;3.30;;;;;;;;;;5082352;28;20059;-78
2022/02/26 10:27:29;;;;;;;14.40;3.22;;;;;;;;;;5082641;28;20024;-73
2022/02/26 10:29:55;;;;;;;11.10;2.53;;;;;;;;;;5082033;28;20077;-78
2022/02/26 10:32:21;;;;;;;15.27;3.25;;;;;;;;;;5082104;28;20071;-78
2022/02/26 10:34:47;;;;;;;16.55;3.13;;;;;;;;;;5082411;28;20020;-78
2022/02/26 10:37:16;;;;;;;12.13;3.05;;;;;;;;;;5082360;28;20115;-79
2022/02/26 10:40:11;;;;;;;14.25;3.58;;;;;;;;;;5082266;28;20028;-79
2022/02/26 10:42:42;;;;;;;14.13;3.47;;;;;;;;;;5065138;28;20488;-77
2022/02/26 10:45:22;;;;;;;16.75;3.28;;;;;;;;;;5082724;28;20032;-77
2022/02/26 10:47:49;;;;;;;11.70;2.80;;;;;;;;;;5081855;28;20552;-78
2022/02/26 10:50:19;;;;;;;15.73;3.72;;;;;;;;;;5082552;28;20020;-79
2022/02/26 10:52:55;;;;;;;8.80;2.88;;;;;;;;;;5082484;28;20115;-74
2022/02/26 10:55:21;;;;;;;14.80;3.13;;;;;;;;;;5082350;28;20020;-77
2022/02/26 10:57:47;;;;;;;16.15;3.25;;;;;;;;;;5082050;28;20032;-71
2022/02/26 11:00:13;;;;;;;14.65;3.33;;;;;;;;;;5082141;28;20024;-79
2022/02/26 11:02:42;;;;;;;16.42;3.38;;;;;;;;;;5082038;28;20056;-79
2022/02/26 11:05:08;;;;;;;19.60;2.90;;;;;;;;;;5082294;28;20022;-80
2022/02/26 11:07:34;;;;;;;13.45;2.90;;;;;;;;;;5082549;28;20036;-79
2022/02/26 11:10:01;;;;;;;10.75;3.05;;;;;;;;;;5082108;28;20032;-77
2022/02/26 11:12:28;;;;;;;18.08;4.43;;;;;;;;;;5082114;28;20036;-78
2022/02/26 11:14:57;;;;;;;18.23;3.75;;;;;;;;;;5081807;28;20016;-78
2022/02/26 11:17:24;;;;;;;19.58;3.83;;;;;;;;;;5082320;28;20078;-76
2022/02/26 11:19:52;;;;;;;12.68;3.28;;;;;;;;;;5081678;28;20024;-75
2022/02/26 11:22:19;;;;;;;19.20;4.18;;;;;;;;;;5081722;28;20032;-78
2022/02/26 11:24:45;;;;;;;19.10;3.53;;;;;;;;;;5082140;28;20056;-76
2022/02/26 11:27:11;;;;;;;29.88;3.88;;;;;;;;;;5081548;28;20031;-79
2022/02/26 11:29:40;;;;;;;18.20;3.65;;;;;;;;;;5081529;28;20055;-79
2022/02/26 11:32:11;;;;;;;15.60;3.60;;;;;;;;;;5081404;28;20535;-78
2022/02/26 11:34:38;;;;;;;19.50;3.53;;;;;;;;;;5081729;28;20024;-73
2022/02/26 11:37:05;;;;;;;18.90;3.78;;;;;;;;;;5063844;28;20051;-80
2022/02/26 11:39:36;;;;;;;14.20;3.90;;;;;;;;;;5081730;28;20082;-79
2022/02/26 11:42:14;;;;;;;24.13;5.68;;;;;;;;;;5082514;28;20029;-76
2022/02/26 11:44:42;;;;;;;9.73;3.20;;;;;;;;;;5081746;28;20024;-79
2022/02/26 11:47:15;;;;;;;10.93;3.53;;;;;;;;;;5081812;28;20039;-79
2022/02/26 11:49:57;;;;;;;13.93;3.40;;;;;;;;;;5081543;28;20024;-73
2022/02/26 11:52:55;;;;;;;17.63;3.35;;;;;;;;;;5082106;28;20040;-80
2022/02/26 11:55:21;;;;;;;9.63;2.72;;;;;;;;;;5037000;28;20036;-80
2022/02/26 11:57:48;;;;;;;9.02;2.83;;;;;;;;;;5081503;28;20034;-78
2022/02/26 12:00:16;;;;;;;7.53;2.38;;;;;;;;;;5084246;28;20630;-78
2022/02/26 12:02:42;;;;;;;13.00;3.20;;;;;;;;;;5085110;28;20101;-80
2022/02/26 12:05:09;;;;;;;10.23;2.90;;;;;;;;;;5084930;28;20039;-77
2022/02/26 12:07:35;;;;;;;12.82;2.92;;;;;;;;;;5085039;28;20094;-80
2022/02/26 12:10:04;;;;;;;9.52;3.35;;;;;;;;;;5085058;28;20053;-80
2022/02/26 12:12:34;;;;;;;10.55;3.65;;;;;;;;;;5084605;28;20036;-80
2022/02/26 12:15:01;;;;;;;13.60;2.80;;;;;;;;;;5084748;28;20404;-79
2022/02/26 12:17:27;;;;;;;13.95;3.47;;;;;;;;;;5084817;28;20480;-72
2022/02/26 12:19:54;;;;;;;13.15;3.53;;;;;;;;;;5084895;28;20031;-80
2022/02/26 12:22:22;;;;;;;19.77;2.95;;;;;;;;;;5084688;28;20024;-76
2022/02/26 12:24:53;;;;;;;11.05;2.50;;;;;;;;;;5084699;28;20024;-79
2022/02/26 12:27:32;;;;;;;12.70;3.17;;;;;;;;;;5084725;28;20507;-79
2022/02/26 12:29:58;;;;;;;16.48;3.42;;;;;;;;;;5085205;28;20143;-80
2022/02/26 12:32:26;;;;;;;14.60;3.47;;;;;;;;;;5084342;28;20036;-79
2022/02/26 12:34:52;;;;;;;14.32;2.97;;;;;;;;;;5084869;28;20476;-78
2022/02/26 12:37:32;;;;;;;10.90;3.00;;;;;;;;;;5084468;28;20152;-73
2022/02/26 12:40:00;;;;;;;9.90;2.40;;;;;;;;;;5084717;28;20027;-79
2022/02/26 12:42:28;;;;;;;11.35;3.17;;;;;;;;;;5084766;28;20034;-80
2022/02/26 12:44:59;;;;;;;10.50;2.38;;;;;;;;;;5084260;28;20518;-79
2022/02/26 12:47:26;;;;;;;10.60;2.50;;;;;;;;;;5085033;28;20023;-79
2022/02/26 12:49:52;;;;;;;11.02;2.10;;;;;;;;;;5066209;28;20499;-79
2022/02/26 12:52:18;;;;;;;8.25;1.92;;;;;;;;;;5084304;28;20036;-80
2022/02/26 12:54:45;;;;;;;7.47;2.20;;;;;;;;;;5083837;28;20024;-79
2022/02/26 12:57:12;;;;;;;11.10;2.20;;;;;;;;;;5084005;28;20107;-79
2022/02/26 12:59:38;;;;;;;9.00;2.45;;;;;;;;;;5084412;28;20027;-74
2022/02/26 13:02:05;;;;;;;14.40;2.58;;;;;;;;;;5083797;28;20036;-79
2022/02/26 13:04:34;;;;;;;8.07;1.50;;;;;;;;;;5083899;28;20054;-72
2022/02/26 13:07:08;;;;;;;11.10;2.30;;;;;;;;;;5083668;28;20662;-79
2022/02/26 13:09:50;;;;;;;10.25;2.35;;;;;;;;;;5065572;28;20024;-80
2022/02/26 13:12:28;;;;;;;8.77;2.13;;;;;;;;;;5083332;28;20123;-74
2022/02/26 13:15:00;;;;;;;15.18;1.80;;;;;;;;;;5083383;28;20024;-74
2022/02/26 13:17:31;;;;;;;13.38;3.22;;;;;;;;;;5083860;28;20476;-80
2022/02/26 13:19:58;;;;;;;12.30;2.20;;;;;;;;;;5063042;28;20109;-77
2022/02/26 13:22:26;;;;;;;10.25;2.13;;;;;;;;;;5065498;28;20058;-79
2022/02/26 13:24:52;;;;;;;9.45;2.28;;;;;;;;;;5083075;28;20064;-79
2022/02/26 13:27:22;;;;;;;10.40;2.10;;;;;;;;;;5083503;28;20028;-76
2022/02/26 13:29:50;;;;;;;8.65;1.50;;;;;;;;;;5065696;28;20861;-76
2022/02/26 13:32:22;;;;;;;11.32;1.88;;;;;;;;;;5081867;28;20047;-74
2022/02/26 13:34:50;;;;;;;;;;;;;;;;;;5083800;28;20637;-77
2022/02/26 13:37:16;;;;;;;10.63;2.08;;;;;;;;;;5083137;28;19927;-79
2022/02/26 13:39:45;;;;;;;17.92;2.05;;;;;;;;;;5083049;28;20039;-75
2022/02/26 13:42:13;;;;;;;31.15;4.28;;;;;;;;;;5065026;28;20081;-79
2022/02/26 13:44:42;;;;;;;12.95;2.72;;;;;;;;;;5083353;28;20024;-78
2022/02/26 13:47:11;;;;;;;10.88;2.20;;;;;;;;;;5064945;28;20024;-75
2022/02/26 13:49:41;;;;;;;9.88;1.70;;;;;;;;;;5083074;28;20059;-78
2022/02/26 13:52:13;;;;;;;14.45;2.33;;;;;;;;;;5064948;28;20050;-77
2022/02/26 13:54:47;;;;;;;11.63;2.38;;;;;;;;;;5048555;28;20028;-77
2022/02/26 13:57:21;;;;;;;8.57;1.75;;;;;;;;;;5083010;28;20123;-76
2022/02/26 13:59:50;;;;;;;14.25;1.98;;;;;;;;;;5081334;28;20035;-74
2022/02/26 14:02:21;;;;;;;7.85;1.80;;;;;;;;;;5064785;28;20097;-75
2022/02/26 14:04:48;;;;;;;12.02;2.35;;;;;;;;;;5082921;28;20172;-74
2022/02/26 14:07:14;;;;;;;9.02;1.73;;;;;;;;;;5082853;28;20024;-74
2022/02/26 14:09:44;;;;;;;9.30;1.80;;;;;;;;;;5082278;28;20020;-77
2022/02/26 14:12:12;;;;;;;9.15;2.35;;;;;;;;;;5082324;28;20028;-81
2022/02/26 14:14:39;;;;;;;10.68;1.85;;;;;;;;;;5064442;28;20047;-74
2022/02/26 14:17:08;;;;;;;11.35;1.83;;;;;;;;;;5082796;28;20028;-74
2022/02/26 14:19:36;;;;;;;9.20;2.05;;;;;;;;;;5082923;28;20507;-76
2022/02/26 14:22:04;;;;;;;13.43;1.90;;;;;;;;;;5082043;28;20032;-75
2022/02/26 14:24:31;;;;;;;14.23;2.38;;;;;;;;;;5082320;28;20035;-78
2022/02/26 14:26:59;;;;;;;7.75;2.35;;;;;;;;;;5082547;28;20035;-80
2022/02/26 14:29:29;;;;;;;12.57;2.10;;;;;;;;;;5082461;28;20292;-75
2022/02/26 14:31:59;;;;;;;13.40;2.60;;;;;;;;;;5082275;28;20039;-77
2022/02/26 14:34:25;;;;;;;10.35;1.95;;;;;;;;;;5082454;28;20690;-78
2022/02/26 14:36:52;;;;;;;6.00;1.60;;;;;;;;;;5082385;28;20108;-76